Jean Marie River, Canada
Current Conditions -  °F | °C
As of 9:00 AM on Thursday 18 Dec 2014 (Local Time) from CYFS Reporting Station
Few Clouds Few Clouds  
Wind Chill: -17°   Ceiling: Unl
Heat Index: -17°   Visibility: 15mi
Dew Point: -24°   Wind: 0mph
Humidity: 70%   Direction: NA
Pressure: 29.74"   Gusts: NA
Location:  61.52°N, 120.63°W
Report Text: CYFS 181600Z 00000KT 15SM FEW060 M27/M31 A2974 RMK SC1 SLP096
Loading
Personal Weather Stations






























Interactive Weather Map New forecast layout! Learn more

10-Day Weather Forecast

Advertisements
Track Severe Weather on mobile